Aérodrome :
LOGIN :

S'inscrire | Disclaimer

   EN    FR    IT 

 










Légende :    VFR   VFR Marginal   IFR   IFR Intensif   IFR Très Intensif
Visi : 
Plafond : 
>= 8 km
>= 3000ft
5 à 8 km
1000 à 3000 ft
1500m à 5 km
500 à 1000 ft
800 à 1500m
200 à 500 ft
< 800m
< 200 ft
Symboles :   Orages  Brouillard  Fortes neiges  Fortes précipitations  Vent > 20 kt
SIGMETs :   Divers  Orages  Givrage  Turbulence  Onde Orograph.  Cendres Volcan.






- Altitude de l'aérodrome : 6 ft
- Code IATA : PSA


LIRP - Galileo Galilei Pisa

DERNIER METAR :
  • 190015Z 08004KT 040V110 9999 FEW025 20/19 Q1013 TEMPO 5000 RA

METARs EXPIRÉS :
  • 182345Z VRB02KT 9999 FEW025 21/20 Q1013 TEMPO 5000 RA
  • 182315Z 15004KT 080V190 9999 -RA SCT015 SCT030 21/20 Q1013 TEMPO 5000
  • 182245Z 08004KT 9999 SCT015 SCT030 20/19 Q1013 NOSIG
  • 182215Z 11004KT 9999 SCT020 20/19 Q1013 NOSIG
  • 182145Z 08004KT 9999 SCT025 20/20 Q1013 NOSIG

TAF TAF LIRP
Valide du 19 à 00h jusqu'au 20 à 00h UTC


182300Z 1900/1924 26005KT 9999 SCT030 SCT060
TEMPO 1900/1908 4000 SHRA FEW015CB BKN025
TEMPO 1908/1914 24020G30KT 3000 TSRA FEW010CB BKN020
BECMG 1915/1918 9999 FEW030 SCT080



MET'MAP, la Météo Aéronautique d'un coup d'oeil ! - Copyright ORBIFLY Décembre 2007 - Disclaimer

ORBIFLY MET'MAP TEAM :

Programmation & Développement : Alexandra Zaïnal
Sur une idée originale de : Baudouin d'Aumeries
Assistance à la programmation : Marc-Olivier Méhu
Soutien technique & logistique : Manuel Goepfert

Contact : metmap@orbifly.com




SOURCES & CREDITS :

   NOAA